Terminal Aerodrome Forecast
Issued by NWS

Home | Current Version | Previous Version | Text Only | Print | Product List | Glossary On
Versions: 1 2 3 4 5 6 7 8 9 10 11 12 13 14 15 16 17 18 19 20 21 22
000
FTUS43 KDLH 181100
TAFHYR
TAF
KHYR 181139Z 1812/1912 08006KT P6SM OVC015
      TEMPO 1812/1816 OVC008
     FM181600 13008KT P6SM SCT025 SCT050
     FM190000 15006KT P6SM BKN025
     FM190400 17008KT P6SM OVC015 WS020/20040KT=

USA.gov is the U.S. government's official web portal to all federal, state and local government web resources and services.